Time;durP1;ratioP1;P1;durP2;ratioP2;P2;SDS_P1;SDS_P2;PMS_P1;PMS_P2;Temp;Humidity;BMP_temperature;BMP_pressure;BME280_temperature;BME280_humidity;BME280_pressure;Samples;Min_cycle;Max_cycle;Signal;HPM_P1;HPM_P2
2023/09/23 00:01:05;;;;;;;8.48;3.95;;;;;;;27.41;43.10;98914.00;4482921;32;33658;-67
2023/09/23 00:03:33;;;;;;;17.42;3.90;;;;;;;27.41;43.15;98922.22;4483032;32;34533;-66
2023/09/23 00:06:03;;;;;;;10.95;4.20;;;;;;;27.41;43.19;98926.87;4482843;32;33264;-67
2023/09/23 00:08:31;;;;;;;7.97;3.67;;;;;;;27.41;43.18;98929.62;4481634;32;33788;-67
2023/09/23 00:11:00;;;;;;;10.40;4.28;;;;;;;27.42;43.15;98926.63;4482924;32;33598;-66
2023/09/23 00:13:28;;;;;;;8.65;3.97;;;;;;;27.40;43.17;98923.34;4482692;32;34734;-67
2023/09/23 00:15:56;;;;;;;9.25;3.83;;;;;;;27.40;43.17;98925.25;4482774;32;34767;-67
2023/09/23 00:18:24;;;;;;;8.15;4.20;;;;;;;27.40;43.27;98915.12;4481885;32;33076;-68
2023/09/23 00:20:52;;;;;;;8.02;3.60;;;;;;;27.39;43.30;98913.47;4482679;32;33345;-67
2023/09/23 00:23:20;;;;;;;9.00;4.10;;;;;;;27.39;43.29;98905.25;4482922;32;33534;-67
2023/09/23 00:25:49;;;;;;;11.93;4.35;;;;;;;27.39;43.28;98905.25;4482756;32;34037;-66
2023/09/23 00:28:16;;;;;;;10.23;4.45;;;;;;;27.38;43.29;98911.03;4484501;32;34201;-65
2023/09/23 00:30:45;;;;;;;11.80;4.50;;;;;;;27.39;43.27;98918.13;4482783;32;34330;-65
2023/09/23 00:33:16;;;;;;;9.27;4.12;;;;;;;27.38;43.28;98911.03;4482442;32;34765;-66
2023/09/23 00:35:45;;;;;;;8.60;3.97;;;;;;;27.39;43.26;98921.69;4484841;32;33714;-66
2023/09/23 00:38:12;;;;;;;9.32;4.37;;;;;;;27.39;43.28;98927.19;4482872;32;33618;-65
2023/09/23 00:40:41;;;;;;;8.15;4.03;;;;;;;27.39;43.26;98920.88;4466864;32;33701;-65
2023/09/23 00:43:09;;;;;;;11.68;4.50;;;;;;;27.39;43.22;98915.41;4467914;32;33926;-66
2023/09/23 00:45:37;;;;;;;8.38;3.97;;;;;;;27.39;43.22;98929.09;4467909;32;33992;-65
2023/09/23 00:48:08;;;;;;;12.77;4.20;;;;;;;27.39;43.23;98920.88;4454853;32;33686;-67
2023/09/23 00:50:36;;;;;;;10.48;4.05;;;;;;;27.38;43.23;98917.31;4482705;32;32897;-67
2023/09/23 00:53:04;;;;;;;9.30;4.12;;;;;;;27.39;43.28;98918.13;4470500;32;33742;-67
2023/09/23 00:55:39;;;;;;;10.10;4.40;;;;;;;27.38;43.24;98930.19;4483379;32;33980;-65
2023/09/23 00:58:07;;;;;;;12.88;5.05;;;;;;;27.38;43.22;98924.72;4484667;32;34068;-65
2023/09/23 01:00:37;;;;;;;9.43;4.32;;;;;;;27.38;43.25;98922.81;4483997;32;34275;-67
2023/09/23 01:03:05;;;;;;;10.80;4.25;;;;;;;27.38;43.25;98924.72;4484451;32;33816;-66
2023/09/23 01:05:34;;;;;;;9.35;4.50;;;;;;;27.38;43.24;98924.72;4470374;32;34023;-66
2023/09/23 01:08:06;;;;;;;11.82;4.62;;;;;;;27.36;43.37;98927.72;4484497;32;33822;-67
2023/09/23 01:10:33;;;;;;;11.52;4.53;;;;;;;27.37;43.39;98940.34;4483232;32;34570;-66
2023/09/23 01:13:01;;;;;;;8.82;4.37;;;;;;;27.37;43.36;98942.22;4484533;32;33815;-67
2023/09/23 01:15:31;;;;;;;11.43;4.18;;;;;;;27.37;43.32;98950.44;4483119;32;34852;-66
2023/09/23 01:17:59;;;;;;;9.45;4.40;;;;;;;27.35;43.30;98950.72;4484402;32;34047;-67
2023/09/23 01:20:26;;;;;;;11.75;4.50;;;;;;;27.35;43.33;98950.72;4484173;32;34379;-67
2023/09/23 01:22:57;;;;;;;8.32;4.12;;;;;;;27.37;43.40;98958.66;4484412;32;33876;-67
2023/09/23 01:25:25;;;;;;;11.32;4.50;;;;;;;27.35;43.41;98955.38;4484464;32;34003;-67
2023/09/23 01:27:53;;;;;;;11.95;4.47;;;;;;;27.35;43.42;98952.66;4484389;32;33656;-68
2023/09/23 01:30:21;;;;;;;9.32;4.53;;;;;;;27.34;43.43;98957.31;4484232;32;33639;-67
2023/09/23 01:32:50;;;;;;;10.95;4.57;;;;;;;27.35;43.37;98969.09;4484440;32;34501;-68
2023/09/23 01:35:20;;;;;;;8.32;4.40;;;;;;;27.35;43.38;98958.13;4484204;32;34748;-68
2023/09/23 01:37:49;;;;;;;8.73;4.30;;;;;;;27.36;43.36;98962.50;4482781;31;34532;-66
2023/09/23 01:40:17;;;;;;;11.15;4.50;;;;;;;27.35;43.29;98947.16;4480737;32;33653;-66
2023/09/23 01:42:48;;;;;;;9.27;4.87;;;;;;;27.37;43.24;98945.81;4484110;32;33448;-67
2023/09/23 01:45:19;;;;;;;7.10;4.00;;;;;;;27.35;43.25;98953.47;4483163;32;33561;-67
2023/09/23 01:47:47;;;;;;;12.55;4.57;;;;;;;27.34;43.26;98956.50;4470299;32;34225;-66
2023/09/23 01:50:18;;;;;;;12.02;4.50;;;;;;;27.34;43.26;98968.28;4484189;32;33849;-67
2023/09/23 01:52:46;;;;;;;12.02;4.57;;;;;;;27.34;43.25;98979.22;4481421;32;34631;-65
2023/09/23 01:55:16;;;;;;;9.48;4.30;;;;;;;27.35;43.23;98977.31;4482202;32;33720;-67
2023/09/23 01:57:50;;;;;;;;;;;;;;;27.35;43.27;98971.81;4484646;32;34154;-67
2023/09/23 02:00:26;;;;;;;9.82;4.60;;;;;;;27.45;43.05;98980.88;4482689;32;33622;-67
2023/09/23 02:02:55;;;;;;;11.27;4.32;;;;;;;27.37;43.17;98983.31;4483134;32;35048;-67
2023/09/23 02:05:27;;;;;;;9.50;4.50;;;;;;;27.33;43.23;98977.59;4469831;32;34549;-66
2023/09/23 02:07:55;;;;;;;9.40;4.37;;;;;;;27.32;43.23;98992.34;4470443;32;32791;-66
2023/09/23 02:10:26;;;;;;;8.43;4.25;;;;;;;27.33;43.22;98987.72;4483902;32;34087;-67
2023/09/23 02:12:54;;;;;;;11.25;4.62;;;;;;;27.32;43.26;98989.63;4482953;32;34614;-68
2023/09/23 02:15:22;;;;;;;10.18;3.95;;;;;;;27.31;43.24;98981.69;4482541;32;34715;-66
2023/09/23 02:17:49;;;;;;;11.77;4.45;;;;;;;27.31;43.23;98996.19;4484110;32;33989;-66
2023/09/23 02:22:49;;;;;;;10.93;4.53;;;;;;;27.32;43.17;98988.78;4482521;32;34579;-66
2023/09/23 02:25:17;;;;;;;7.93;4.10;;;;;;;27.31;43.14;98989.91;4483125;32;34708;-67
2023/09/23 02:27:46;;;;;;;9.68;4.32;;;;;;;27.31;43.17;98995.37;4482861;32;34131;-67
2023/09/23 02:30:14;;;;;;;9.43;4.28;;;;;;;27.31;43.16;99000.84;4469584;32;34208;-66
2023/09/23 02:32:45;;;;;;;8.95;3.78;;;;;;;27.31;43.17;99015.38;4484121;32;34324;-65
2023/09/23 02:35:15;;;;;;;10.25;4.20;;;;;;;27.30;43.14;99013.72;4482769;32;34652;-66
2023/09/23 02:37:44;;;;;;;12.05;4.47;;;;;;;27.31;43.10;99014.53;4470104;32;33738;-66
2023/09/23 02:40:13;;;;;;;11.98;4.20;;;;;;;27.31;43.04;99022.75;4482567;32;33579;-67
2023/09/23 02:42:43;;;;;;;10.50;4.32;;;;;;;27.31;43.05;99020.03;4482847;32;33865;-66
2023/09/23 02:45:13;;;;;;;12.18;4.15;;;;;;;27.30;43.06;99018.37;4484003;32;34677;-66
2023/09/23 02:47:43;;;;;;;;;;;;;;;27.31;43.07;99030.97;4484283;32;34177;-67
2023/09/23 02:50:13;;;;;;;11.25;4.40;;;;;;;27.40;42.87;99035.66;4482185;32;33058;-66
2023/09/23 02:52:44;;;;;;;8.73;4.35;;;;;;;27.33;43.06;99046.06;4484018;32;33849;-66
2023/09/23 02:55:14;;;;;;;8.27;4.15;;;;;;;27.30;43.15;99043.03;4483931;32;34591;-65
2023/09/23 02:57:46;;;;;;;10.90;4.68;;;;;;;27.28;43.17;99034.25;4482611;32;34078;-66
2023/09/23 03:00:20;;;;;;;9.63;4.43;;;;;;;27.28;43.17;99039.72;4482241;32;34411;-67
2023/09/23 03:02:57;;;;;;;8.48;4.10;;;;;;;27.29;43.15;99030.44;4483526;32;33808;-66
2023/09/23 03:05:26;;;;;;;9.18;3.50;;;;;;;27.29;43.12;99022.22;4482613;32;34001;-67
2023/09/23 03:07:58;;;;;;;10.75;3.83;;;;;;;27.27;43.10;99027.13;4482448;32;34765;-67
2023/09/23 03:10:39;;;;;;;15.05;5.03;;;;;;;27.29;43.05;99030.44;4469985;32;33844;-66
2023/09/23 03:13:11;;;;;;;9.60;4.32;;;;;;;27.27;43.06;99029.88;4483960;32;33938;-67
2023/09/23 03:15:52;;;;;;;9.80;4.30;;;;;;;27.27;43.03;99035.34;4483805;32;34017;-67
2023/09/23 03:18:33;;;;;;;14.27;4.60;;;;;;;27.26;43.03;99037.28;4470877;32;33759;-66
2023/09/23 03:21:10;;;;;;;11.00;4.97;;;;;;;27.26;43.02;99033.72;4483555;32;33832;-66
2023/09/23 03:23:39;;;;;;;11.82;4.60;;;;;;;27.25;43.07;99030.16;4483922;32;34622;-67
2023/09/23 03:26:08;;;;;;;9.07;4.18;;;;;;;27.25;43.09;99026.59;4482536;32;33944;-66
2023/09/23 03:28:37;;;;;;;14.77;4.93;;;;;;;27.25;43.08;99005.50;4483638;32;33690;-67
2023/09/23 03:31:08;;;;;;;11.88;4.15;;;;;;;27.26;43.10;99006.31;4469276;32;34092;-66
2023/09/23 03:33:37;;;;;;;11.63;4.87;;;;;;;27.26;43.17;99009.06;4470026;32;33970;-67
2023/09/23 03:36:09;;;;;;;12.77;4.65;;;;;;;27.25;43.19;98999.22;4483598;32;33522;-66
2023/09/23 03:38:37;;;;;;;13.13;4.62;;;;;;;27.26;43.19;99007.16;4474613;32;33966;-65
2023/09/23 03:41:05;;;;;;;11.70;4.90;;;;;;;27.25;43.18;98997.28;4482866;32;33309;-65
2023/09/23 03:43:33;;;;;;;10.95;4.80;;;;;;;27.25;43.21;99005.50;4482048;32;32967;-67
2023/09/23 03:46:03;;;;;;;13.98;4.87;;;;;;;27.25;43.30;99010.97;4483107;32;34676;-66
2023/09/23 03:48:31;;;;;;;11.73;5.15;;;;;;;27.25;43.52;99013.72;4483143;32;34930;-66
2023/09/23 03:51:04;;;;;;;15.38;5.00;;;;;;;27.28;43.71;99026.88;4483121;32;34464;-66
2023/09/23 03:53:33;;;;;;;13.20;5.55;;;;;;;27.28;43.82;99020.56;4483512;32;34640;-66
2023/09/23 03:56:00;;;;;;;14.55;4.97;;;;;;;27.27;43.73;99019.75;4483272;32;34003;-66
2023/09/23 03:58:28;;;;;;;13.40;5.35;;;;;;;27.28;43.64;99029.62;4482989;32;34464;-67
2023/09/23 04:01:00;;;;;;;21.52;6.32;;;;;;;27.28;43.55;99039.72;4481601;32;33580;-65
2023/09/23 04:03:27;;;;;;;12.37;4.43;;;;;;;27.29;43.58;99044.12;4471318;32;34839;-66
2023/09/23 04:05:57;;;;;;;21.58;4.65;;;;;;;27.28;43.52;99043.31;4484963;32;33937;-66
2023/09/23 04:08:26;;;;;;;12.50;4.87;;;;;;;27.28;43.58;99042.47;4471201;32;35043;-65
2023/09/23 04:10:54;;;;;;;16.27;5.78;;;;;;;27.28;43.55;99043.31;4483406;32;34661;-66
2023/09/23 04:13:21;;;;;;;18.37;5.45;;;;;;;27.28;43.58;99037.84;4485050;32;34626;-66
2023/09/23 04:15:49;;;;;;;12.57;5.10;;;;;;;27.28;43.61;99050.69;4485112;32;34713;-66
2023/09/23 04:18:18;;;;;;;13.80;5.87;;;;;;;27.28;43.62;99056.16;4484860;32;33777;-65
2023/09/23 04:20:48;;;;;;;13.43;4.97;;;;;;;27.28;43.64;99054.28;4484386;32;33532;-66
2023/09/23 04:23:16;;;;;;;11.43;4.65;;;;;;;27.27;43.65;99049.88;4484938;32;34669;-66
2023/09/23 04:25:44;;;;;;;11.75;4.95;;;;;;;27.28;43.60;99047.94;4484878;32;34720;-66
2023/09/23 04:28:11;;;;;;;11.60;5.22;;;;;;;27.28;43.64;99050.69;4484912;32;33992;-67
2023/09/23 04:30:39;;;;;;;14.48;5.62;;;;;;;27.27;43.68;99043.56;4484709;32;33406;-65
2023/09/23 04:33:07;;;;;;;16.55;6.03;;;;;;;27.28;43.75;99050.69;4483232;32;33679;-66
2023/09/23 04:35:35;;;;;;;14.82;6.00;;;;;;;27.28;43.82;99050.69;4484869;32;33943;-66
2023/09/23 04:38:03;;;;;;;10.82;4.97;;;;;;;27.27;43.77;99049.88;4484831;32;34027;-66
2023/09/23 04:40:31;;;;;;;13.25;5.80;;;;;;;27.27;43.82;99049.88;4484584;32;34466;-66
2023/09/23 04:43:00;;;;;;;13.35;5.57;;;;;;;27.26;43.84;99064.66;4483654;32;34677;-65
2023/09/23 04:45:27;;;;;;;13.62;5.12;;;;;;;27.27;43.83;99060.81;4463243;32;34812;-66
2023/09/23 04:47:56;;;;;;;13.25;5.85;;;;;;;27.28;43.84;99061.66;4469002;32;34214;-65
2023/09/23 04:50:24;;;;;;;14.93;5.78;;;;;;;27.26;43.88;99048.22;4476187;32;33508;-65
2023/09/23 04:52:51;;;;;;;12.32;5.05;;;;;;;27.26;43.89;99047.41;4484873;32;34381;-64
2023/09/23 04:55:21;;;;;;;11.18;4.28;;;;;;;27.26;43.94;99064.66;4484685;32;34857;-65
2023/09/23 04:57:49;;;;;;;20.23;5.60;;;;;;;27.27;43.92;99073.69;4484808;32;33849;-65
2023/09/23 05:00:18;;;;;;;13.95;5.62;;;;;;;27.28;43.94;99064.37;4484442;32;34080;-66
2023/09/23 05:02:49;;;;;;;13.20;5.10;;;;;;;27.27;44.04;99062.75;4483169;31;33849;-64
2023/09/23 05:05:18;;;;;;;16.27;5.70;;;;;;;27.26;44.08;99066.59;4484017;32;34656;-65
2023/09/23 05:07:46;;;;;;;;;;;;;;;27.26;44.15;99074.81;4483747;32;33971;-64
2023/09/23 05:10:14;;;;;;;13.80;5.07;;;;;;;27.37;44.02;99093.75;4478176;32;33342;-65
2023/09/23 05:12:43;;;;;;;13.15;5.70;;;;;;;27.27;44.14;99098.34;4468811;32;33904;-64
2023/09/23 05:15:14;;;;;;;;;;;;;;;27.26;44.24;99091.22;4468153;32;34790;-64
2023/09/23 05:17:45;;;;;;;13.80;5.37;;;;;;;27.35;44.07;99095.91;4482701;32;34074;-64
2023/09/23 05:20:25;;;;;;;17.95;5.40;;;;;;;27.27;44.26;99099.16;4483872;32;34361;-65
2023/09/23 05:22:54;;;;;;;14.02;5.75;;;;;;;27.23;44.38;99098.06;4482137;32;33644;-64
2023/09/23 05:25:27;;;;;;;16.75;5.60;;;;;;;27.23;44.41;99103.53;4484424;32;33873;-65
2023/09/23 05:27:55;;;;;;;10.50;5.18;;;;;;;27.24;44.48;99121.62;4484421;32;34803;-64
2023/09/23 05:30:25;;;;;;;12.15;5.55;;;;;;;27.23;44.54;99130.91;4484602;32;34412;-64
2023/09/23 05:32:52;;;;;;;20.27;5.87;;;;;;;27.21;44.63;99131.19;4473932;32;33655;-66
2023/09/23 05:35:20;;;;;;;13.20;6.07;;;;;;;27.25;44.62;99141.63;4482841;32;33855;-66
2023/09/23 05:37:48;;;;;;;12.80;4.47;;;;;;;27.25;44.68;99149.84;4483950;32;34214;-66
2023/09/23 05:40:26;;;;;;;;;;;;;;;27.25;44.77;99161.63;4484552;32;33496;-66
2023/09/23 05:42:56;;;;;;;15.23;5.25;;;;;;;27.37;44.60;99167.72;4484482;32;33834;-66
2023/09/23 05:45:27;;;;;;;13.25;4.62;;;;;;;27.33;44.60;99171.25;4470241;32;34283;-66
2023/09/23 05:47:57;;;;;;;12.18;4.70;;;;;;;27.33;44.53;99171.25;4470108;32;32892;-65
2023/09/23 05:50:25;;;;;;;12.85;5.32;;;;;;;27.33;44.44;99177.56;4466722;32;32514;-65
2023/09/23 05:52:53;;;;;;;15.50;5.18;;;;;;;27.33;44.57;99191.25;4468180;32;34658;-65
2023/09/23 05:55:21;;;;;;;15.93;5.55;;;;;;;27.31;44.79;99200.81;4466949;32;33593;-65
2023/09/23 05:57:51;;;;;;;15.65;5.78;;;;;;;27.30;45.00;99207.38;4466862;32;34878;-66
2023/09/23 06:00:19;;;;;;;14.25;5.00;;;;;;;27.29;45.18;99197.53;4482199;32;34099;-67
2023/09/23 06:02:47;;;;;;;13.35;4.80;;;;;;;27.29;45.10;99205.75;4483819;32;33500;-65
2023/09/23 06:05:16;;;;;;;12.45;4.85;;;;;;;27.28;45.16;99213.16;4483635;32;34002;-65
2023/09/23 06:07:43;;;;;;;16.83;5.60;;;;;;;27.28;45.05;99209.56;4483910;32;34267;-65
2023/09/23 06:10:11;;;;;;;12.07;4.50;;;;;;;27.27;45.16;99216.13;4483871;32;33703;-66
2023/09/23 06:12:39;;;;;;;18.05;5.45;;;;;;;27.27;45.14;99203.25;4483597;32;33369;-65
2023/09/23 06:15:10;;;;;;;11.68;4.68;;;;;;;27.27;45.13;99200.50;4469334;32;33690;-65
2023/09/23 06:17:43;;;;;;;13.30;4.97;;;;;;;27.28;44.96;99190.38;4482755;32;33852;-64
2023/09/23 06:20:11;;;;;;;13.30;5.55;;;;;;;27.30;44.85;99201.91;4469963;32;33529;-65
2023/09/23 06:22:40;;;;;;;11.82;4.65;;;;;;;27.31;44.86;99203.56;4483808;32;33511;-65
2023/09/23 06:25:08;;;;;;;12.63;4.85;;;;;;;27.29;44.92;99209.31;4482686;32;34985;-64
2023/09/23 06:27:36;;;;;;;13.15;4.70;;;;;;;27.30;44.91;99218.34;4483827;32;34842;-65
2023/09/23 06:30:05;;;;;;;11.75;4.65;;;;;;;27.29;44.89;99239.44;4483630;32;33234;-65
2023/09/23 06:32:33;;;;;;;12.93;5.47;;;;;;;27.29;44.91;99255.06;4482486;32;33900;-67
2023/09/23 06:35:01;;;;;;;13.38;4.43;;;;;;;27.30;44.87;99246.56;4483843;32;34039;-70
2023/09/23 06:37:31;;;;;;;12.10;4.45;;;;;;;27.30;44.99;99275.88;4482476;32;35131;-67
2023/09/23 06:40:01;;;;;;;14.18;4.95;;;;;;;27.30;45.63;99300.53;4483815;32;34438;-66
2023/09/23 06:42:30;;;;;;;19.70;5.25;;;;;;;27.30;45.62;99322.44;4470006;32;33910;-65
2023/09/23 06:44:58;;;;;;;15.32;4.47;;;;;;;27.31;45.46;99326.81;4483862;32;34006;-65
2023/09/23 06:47:27;;;;;;;14.27;4.70;;;;;;;27.28;45.40;99330.94;4483947;32;34833;-65
2023/09/23 06:49:55;;;;;;;13.32;4.72;;;;;;;27.30;45.24;99338.87;4482776;32;33707;-65
2023/09/23 06:52:22;;;;;;;15.95;4.57;;;;;;;27.27;45.20;99342.94;4482867;32;33585;-64
2023/09/23 06:54:50;;;;;;;15.07;4.85;;;;;;;27.27;45.17;99351.16;4482979;32;33858;-65
2023/09/23 06:57:17;;;;;;;11.77;4.72;;;;;;;27.27;45.16;99345.69;4482721;32;34200;-65
2023/09/23 06:59:45;;;;;;;8.70;4.32;;;;;;;27.27;44.96;99351.16;4482689;32;33401;-64
2023/09/23 07:02:13;;;;;;;15.73;4.45;;;;;;;27.25;44.90;99350.63;4482773;32;33838;-65
2023/09/23 07:04:41;;;;;;;11.73;4.10;;;;;;;27.26;44.93;99368.69;4480530;32;33525;-65
2023/09/23 07:07:08;;;;;;;12.90;4.53;;;;;;;27.26;44.93;99365.97;4482627;32;34436;-65
2023/09/23 07:09:36;;;;;;;9.00;4.05;;;;;;;27.26;44.82;99371.44;4482631;32;33236;-65
2023/09/23 07:12:04;;;;;;;13.13;4.35;;;;;;;27.25;44.75;99361.56;4482467;32;33788;-66
2023/09/23 07:14:31;;;;;;;7.80;3.90;;;;;;;27.24;44.77;99381.84;4482478;32;34025;-66
2023/09/23 07:17:00;;;;;;;10.38;4.35;;;;;;;27.24;44.92;99384.59;4482631;32;34274;-67
2023/09/23 07:19:27;;;;;;;8.68;3.70;;;;;;;27.24;44.96;99381.84;4481733;32;34553;-66
2023/09/23 07:21:55;;;;;;;12.35;4.68;;;;;;;27.23;44.93;99388.38;4482442;32;33824;-65
2023/09/23 07:24:25;;;;;;;9.63;3.97;;;;;;;27.24;45.07;99389.25;4482424;32;34070;-66
2023/09/23 07:26:57;;;;;;;12.48;4.40;;;;;;;27.22;45.00;99394.97;4482259;32;33896;-65
2023/09/23 07:29:43;;;;;;;11.80;4.10;;;;;;;27.24;45.16;99400.19;4482312;32;33265;-65
2023/09/23 07:32:11;;;;;;;14.90;5.03;;;;;;;27.26;45.14;99400.75;4480895;32;34696;-65
2023/09/23 07:34:39;;;;;;;10.63;4.93;;;;;;;27.20;45.17;99408.94;4480171;32;34784;-67
2023/09/23 07:37:08;;;;;;;11.25;4.15;;;;;;;27.21;45.21;99423.44;4479057;32;34431;-67
2023/09/23 07:39:36;;;;;;;9.60;4.25;;;;;;;27.20;45.13;99417.13;4479993;32;33617;-66
2023/09/23 07:42:04;;;;;;;12.50;4.22;;;;;;;27.22;45.17;99416.88;4480025;32;33798;-67
2023/09/23 07:44:32;;;;;;;10.73;3.95;;;;;;;27.21;45.04;99407.00;4480280;32;33883;-67
2023/09/23 07:46:59;;;;;;;11.32;4.10;;;;;;;27.20;44.89;99408.94;4479159;32;33487;-66
2023/09/23 07:49:27;;;;;;;9.27;3.40;;;;;;;27.20;44.86;99397.97;4479576;32;95273;-66
2023/09/23 07:51:57;;;;;;;11.60;3.85;;;;;;;27.19;44.86;99393.59;4482235;32;33899;-66
2023/09/23 07:54:25;;;;;;;11.23;3.90;;;;;;;27.19;44.95;99392.75;4482762;32;33916;-67
2023/09/23 07:56:53;;;;;;;10.93;3.60;;;;;;;27.19;44.83;99382.63;4482800;32;34422;-67
2023/09/23 07:59:20;;;;;;;11.50;3.90;;;;;;;27.19;44.92;99368.13;4482978;32;33703;-67
2023/09/23 08:01:48;;;;;;;10.00;3.55;;;;;;;27.18;44.94;99344.53;4482142;32;34657;-65
2023/09/23 08:04:16;;;;;;;7.53;3.37;;;;;;;27.18;45.01;99330.84;4481039;32;33891;-66
2023/09/23 08:06:43;;;;;;;12.18;3.40;;;;;;;27.17;45.06;99318.22;4481626;32;34155;-66
2023/09/23 08:09:11;;;;;;;9.55;3.33;;;;;;;27.16;45.01;99311.94;4482436;32;33344;-66
2023/09/23 08:11:39;;;;;;;11.40;3.55;;;;;;;27.15;44.94;99288.38;4483025;32;33907;-67
2023/09/23 08:14:06;;;;;;;10.18;3.53;;;;;;;27.16;45.00;99256.34;4482453;32;34044;-66
2023/09/23 08:16:34;;;;;;;8.23;3.15;;;;;;;27.14;45.04;99250.28;4482858;32;33871;-67
2023/09/23 08:19:02;;;;;;;10.82;3.45;;;;;;;27.14;45.03;99247.53;4482844;32;33605;-67
2023/09/23 08:21:30;;;;;;;10.15;3.35;;;;;;;27.14;45.07;99258.50;4482964;32;33788;-67
2023/09/23 08:23:57;;;;;;;7.87;3.67;;;;;;;27.13;44.95;99257.69;4482334;32;33992;-66
2023/09/23 08:26:25;;;;;;;7.47;3.35;;;;;;;27.13;44.82;99259.59;4482739;32;34065;-67
2023/09/23 08:28:53;;;;;;;6.50;3.25;;;;;;;27.13;44.75;99251.38;4482608;32;34389;-66
2023/09/23 08:31:21;;;;;;;6.35;3.05;;;;;;;27.13;44.72;99245.91;4482800;32;33801;-66
2023/09/23 08:33:49;;;;;;;6.78;3.05;;;;;;;27.12;44.71;99250.56;4481037;32;33796;-66
2023/09/23 08:36:16;;;;;;;8.23;2.80;;;;;;;27.12;44.67;99250.56;4482585;32;34553;-66
2023/09/23 08:38:44;;;;;;;7.72;3.17;;;;;;;27.12;44.74;99266.16;4482344;32;33296;-66
2023/09/23 08:41:12;;;;;;;5.20;2.55;;;;;;;27.13;44.71;99256.84;4474259;32;33810;-67
2023/09/23 08:43:40;;;;;;;8.32;3.47;;;;;;;27.12;44.82;99258.78;4459613;32;33940;-66
2023/09/23 08:46:09;;;;;;;10.25;3.72;;;;;;;27.11;44.99;99262.59;4475121;32;33932;-65
2023/09/23 08:48:38;;;;;;;6.80;3.15;;;;;;;27.12;45.30;99267.00;4483191;32;33661;-65
2023/09/23 08:51:06;;;;;;;7.28;3.20;;;;;;;27.11;45.50;99262.59;4484628;32;34684;-66
2023/09/23 08:53:34;;;;;;;8.70;3.42;;;;;;;27.10;45.59;99252.75;4481112;32;33677;-65
2023/09/23 08:56:02;;;;;;;10.27;3.33;;;;;;;27.10;45.67;99257.41;4441723;32;33099;-65
2023/09/23 08:58:30;;;;;;;7.60;3.12;;;;;;;27.09;45.67;99262.06;4468824;32;33663;-65
2023/09/23 09:00:58;;;;;;;11.95;3.53;;;;;;;27.08;45.62;99282.28;4479356;32;34659;-65
2023/09/23 09:03:26;;;;;;;6.97;3.40;;;;;;;27.10;45.75;99303.97;4484150;32;34832;-62
2023/09/23 09:05:53;;;;;;;7.28;3.62;;;;;;;27.09;45.89;99311.34;4484451;32;34727;-65
2023/09/23 09:08:21;;;;;;;8.27;4.03;;;;;;;27.11;45.94;99331.06;4484435;32;34383;-65
2023/09/23 09:10:49;;;;;;;8.38;4.28;;;;;;;27.12;46.15;99338.19;4484364;32;34157;-65
2023/09/23 09:13:17;;;;;;;9.20;4.68;;;;;;;27.13;46.34;99341.75;4483947;32;33786;-65
2023/09/23 09:15:44;;;;;;;8.50;5.22;;;;;;;27.13;46.47;99347.22;4483006;32;34173;-65
2023/09/23 09:18:13;;;;;;;8.02;4.22;;;;;;;27.13;46.48;99350.78;4475609;32;33350;-65
2023/09/23 09:20:41;;;;;;;8.93;4.95;;;;;;;27.13;46.64;99356.28;4470461;32;33921;-65
2023/09/23 09:23:13;;;;;;;9.85;5.30;;;;;;;27.13;46.57;99358.19;4482812;32;34190;-64
2023/09/23 09:25:47;;;;;;;9.57;5.50;;;;;;;27.13;46.78;99355.44;4483143;32;34029;-64
2023/09/23 09:28:18;;;;;;;16.00;5.97;;;;;;;27.16;46.89;99361.22;4484300;32;33539;-65
2023/09/23 09:30:53;;;;;;;12.30;5.72;;;;;;;27.17;47.07;99364.78;4483974;32;33673;-65
2023/09/23 09:33:22;;;;;;;9.70;6.12;;;;;;;27.15;47.05;99367.81;4475486;32;33661;-65
2023/09/23 09:35:51;;;;;;;10.60;5.65;;;;;;;27.15;47.29;99369.72;4466656;32;33833;-64
2023/09/23 09:38:19;;;;;;;9.75;6.50;;;;;;;27.15;47.21;99370.53;4466925;32;34106;-65
2023/09/23 09:40:46;;;;;;;11.10;6.10;;;;;;;27.16;47.65;99371.38;4468003;32;34500;-65
2023/09/23 09:43:14;;;;;;;10.77;6.62;;;;;;;27.15;47.58;99366.97;4482862;32;33785;-65
2023/09/23 09:45:45;;;;;;;11.55;6.28;;;;;;;27.15;47.79;99351.38;4484054;32;34049;-65
2023/09/23 09:48:13;;;;;;;9.80;6.75;;;;;;;27.13;47.68;99347.22;4469521;32;33326;-65
2023/09/23 09:50:41;;;;;;;8.68;5.30;;;;;;;27.15;47.65;99350.56;4483126;32;33889;-66
2023/09/23 09:53:09;;;;;;;12.50;6.15;;;;;;;27.15;47.79;99354.09;4482927;32;33676;-66
2023/09/23 09:55:36;;;;;;;11.75;6.07;;;;;;;27.15;47.65;99350.56;4484396;32;34183;-66
2023/09/23 09:58:04;;;;;;;10.20;5.80;;;;;;;27.13;47.58;99345.31;4482911;32;34393;-66
2023/09/23 10:00:39;;;;;;;7.75;5.62;;;;;;;27.13;47.66;99350.78;4483161;32;33749;-66
2023/09/23 10:03:08;;;;;;;9.20;5.55;;;;;;;27.14;47.76;99349.72;4483331;32;34680;-65
2023/09/23 10:05:46;;;;;;;10.05;5.25;;;;;;;27.13;47.85;99345.31;4467953;32;33661;-67
2023/09/23 10:08:19;;;;;;;12.02;5.15;;;;;;;27.16;47.99;99346.72;4478176;31;34425;-65
2023/09/23 10:10:48;;;;;;;12.00;5.45;;;;;;;27.13;48.01;99352.72;4466584;32;33886;-65
2023/09/23 10:13:22;;;;;;;12.15;5.03;;;;;;;27.13;47.91;99344.50;4465826;31;34254;-65
2023/09/23 10:15:50;;;;;;;9.75;4.72;;;;;;;27.14;47.98;99346.13;4468179;32;34008;-65
2023/09/23 10:18:18;;;;;;;9.70;3.97;;;;;;;27.13;48.11;99353.53;4458794;31;34077;-65
2023/09/23 10:20:54;;;;;;;8.40;4.47;;;;;;;27.14;48.17;99360.69;4482568;32;33547;-65
2023/09/23 10:23:22;;;;;;;8.10;4.32;;;;;;;27.14;48.13;99357.94;4477773;31;34783;-66
2023/09/23 10:25:52;;;;;;;9.77;4.40;;;;;;;27.14;47.95;99363.41;4474296;32;34024;-65
2023/09/23 10:28:21;;;;;;;7.57;4.45;;;;;;;27.14;47.86;99368.03;4466284;32;33763;-65
2023/09/23 10:30:59;;;;;;;7.17;4.17;;;;;;;27.14;47.88;99359.81;4466438;32;33958;-66
2023/09/23 10:33:27;;;;;;;8.18;4.90;;;;;;;27.17;47.83;99359.31;4467864;31;34813;-65
2023/09/23 10:35:56;;;;;;;7.87;3.92;;;;;;;27.15;48.02;99354.09;4465846;32;34190;-65
2023/09/23 10:38:28;;;;;;;8.05;4.03;;;;;;;27.15;47.91;99353.28;4477838;31;33708;-65
2023/09/23 10:40:55;;;;;;;9.43;4.10;;;;;;;27.15;47.90;99373.28;4466908;32;34629;-65
2023/09/23 10:43:23;;;;;;;7.50;3.87;;;;;;;27.16;48.01;99376.84;4456120;32;34446;-65
2023/09/23 10:45:52;;;;;;;10.35;4.62;;;;;;;27.15;47.99;99362.31;4469412;32;34831;-65
2023/09/23 10:48:20;;;;;;;8.07;4.07;;;;;;;27.14;47.96;99360.69;4469457;32;33387;-65
2023/09/23 10:50:50;;;;;;;8.98;3.95;;;;;;;27.15;47.91;99366.97;4482353;32;34317;-65
2023/09/23 10:53:18;;;;;;;13.65;4.10;;;;;;;27.13;47.87;99375.44;4483047;32;34002;-65
2023/09/23 10:55:47;;;;;;;8.68;4.03;;;;;;;27.14;47.74;99382.59;4466445;32;34581;-65
2023/09/23 10:58:14;;;;;;;8.60;4.00;;;;;;;27.14;47.61;99387.22;4467908;32;33518;-65
2023/09/23 11:00:42;;;;;;;4.82;3.40;;;;;;;27.12;47.68;99390.22;4467152;32;34722;-64
2023/09/23 11:03:11;;;;;;;6.43;3.80;;;;;;;27.13;47.55;99389.13;4466620;32;34482;-65
2023/09/23 11:05:38;;;;;;;9.27;3.45;;;;;;;27.13;47.44;99402.00;4466564;32;34627;-65
2023/09/23 11:08:09;;;;;;;4.70;3.25;;;;;;;27.13;47.28;99413.78;4467478;32;34489;-66
2023/09/23 11:10:41;;;;;;;6.55;3.90;;;;;;;27.13;47.28;99426.66;4465942;32;33395;-66
2023/09/23 11:13:10;;;;;;;6.20;3.45;;;;;;;27.12;47.21;99420.34;4473019;32;34817;-66
2023/09/23 11:15:38;;;;;;;6.22;3.80;;;;;;;27.12;47.05;99425.81;4477594;32;33756;-66
2023/09/23 11:18:15;;;;;;;6.40;3.40;;;;;;;27.11;47.04;99424.19;4481046;31;34400;-66
2023/09/23 11:20:45;;;;;;;6.10;3.40;;;;;;;27.13;46.92;99430.22;4462053;31;34642;-66
2023/09/23 11:23:12;;;;;;;5.67;3.40;;;;;;;27.10;46.93;99428.00;4466469;32;33662;-66
2023/09/23 11:25:45;;;;;;;6.45;3.50;;;;;;;27.13;46.99;99435.69;4466458;32;33326;-66
2023/09/23 11:28:24;;;;;;;5.43;3.28;;;;;;;27.10;46.95;99419.78;4479433;31;33684;-66
2023/09/23 11:30:53;;;;;;;6.60;3.30;;;;;;;27.11;46.66;99415.97;4479610;31;34358;-66
2023/09/23 11:33:21;;;;;;;6.87;3.80;;;;;;;27.09;46.63;99418.16;4464820;32;33926;-65
2023/09/23 11:35:49;;;;;;;10.73;3.75;;;;;;;27.09;46.62;99422.78;4473646;31;33927;-65
2023/09/23 11:38:20;;;;;;;6.22;3.50;;;;;;;27.07;46.58;99423.00;4477283;32;33311;-66
2023/09/23 11:40:48;;;;;;;11.98;3.47;;;;;;;27.06;46.40;99429.59;4468057;31;34334;-65